createdAt,value
2019-04-10T00:01:09.752Z,42.33
2019-04-10T00:03:42.057Z,45.57
2019-04-10T00:06:10.840Z,44.30
2019-04-10T00:08:40.049Z,45.67
2019-04-10T00:11:10.127Z,45.30
2019-04-10T00:13:39.681Z,45.57
2019-04-10T00:16:10.584Z,43.10
2019-04-10T00:18:40.109Z,45.27
2019-04-10T00:21:09.458Z,42.20
2019-04-10T00:23:39.469Z,45.67
2019-04-10T00:26:09.823Z,44.60
2019-04-10T00:28:39.504Z,43.50
2019-04-10T00:31:15.710Z,43.10
2019-04-10T00:33:54.245Z,44.70
2019-04-10T00:36:45.974Z,43.77
2019-04-10T00:39:16.236Z,43.60
2019-04-10T00:45:39.787Z,43.00
2019-04-10T00:48:09.879Z,43.40
2019-04-10T00:50:39.245Z,43.90
2019-04-10T00:53:08.584Z,44.43
2019-04-10T00:55:38.193Z,44.07
2019-04-10T00:58:07.376Z,44.10
2019-04-10T01:00:37.036Z,45.63
2019-04-10T01:03:07.422Z,44.53
2019-04-10T01:05:37.640Z,44.63
2019-04-10T01:08:07.049Z,45.07
2019-04-10T01:10:36.718Z,45.77
2019-04-10T01:13:06.157Z,43.13
2019-04-10T01:15:36.348Z,45.40
2019-04-10T01:18:06.786Z,46.83
2019-04-10T01:20:36.053Z,46.50
2019-04-10T01:23:05.838Z,42.30
2019-04-10T01:25:35.206Z,42.67
2019-04-10T01:28:04.661Z,43.73
2019-04-10T01:30:34.784Z,42.47
2019-04-10T01:33:04.112Z,42.67
2019-04-10T01:35:34.237Z,41.73
2019-04-10T01:38:05.904Z,44.40
2019-04-10T01:40:35.186Z,43.00
2019-04-10T01:43:09.671Z,42.13
2019-04-10T01:45:35.674Z,43.37
2019-04-10T01:48:05.960Z,43.73
2019-04-10T01:50:35.245Z,43.23
2019-04-10T01:53:04.422Z,42.50
2019-04-10T01:55:34.348Z,42.43
2019-04-10T01:58:06.305Z,43.53
2019-04-10T02:00:37.457Z,42.97
2019-04-10T02:03:06.709Z,44.20
2019-04-10T02:05:36.625Z,43.53
2019-04-10T02:08:09.020Z,42.90
2019-04-10T02:10:36.761Z,41.53
2019-04-10T02:13:05.954Z,42.23
2019-04-10T02:15:35.162Z,42.40
2019-04-10T02:18:05.336Z,43.50
2019-04-10T02:20:34.749Z,42.60
2019-04-10T02:23:03.912Z,42.93
2019-04-10T02:25:33.109Z,40.03
2019-04-10T02:28:02.793Z,41.27
2019-04-10T02:30:32.627Z,40.90
2019-04-10T02:33:04.325Z,41.73
2019-04-10T02:35:34.037Z,42.27
2019-04-10T02:38:22.181Z,43.00
2019-04-10T02:40:34.745Z,40.93
2019-04-10T02:43:05.745Z,41.87
2019-04-10T02:45:36.423Z,43.43
2019-04-10T02:48:07.677Z,42.47
2019-04-10T02:50:37.294Z,43.60
2019-04-10T02:53:07.830Z,44.03
2019-04-10T02:55:38.571Z,42.07
2019-04-10T02:58:08.086Z,42.30
2019-04-10T03:00:37.874Z,42.07
2019-04-10T03:03:07.318Z,40.60
2019-04-10T03:05:36.597Z,41.17
2019-04-10T03:08:07.017Z,39.77
2019-04-10T03:10:44.119Z,38.67
2019-04-10T03:13:08.940Z,38.47
2019-04-10T03:15:39.228Z,41.57
2019-04-10T03:18:08.571Z,40.07
2019-04-10T03:20:38.522Z,39.73
2019-04-10T03:23:07.748Z,38.63
2019-04-10T03:25:37.174Z,41.07
2019-04-10T03:28:07.597Z,37.30
2019-04-10T03:30:38.780Z,39.23
2019-04-10T03:33:26.290Z,39.27
2019-04-10T03:35:54.804Z,36.37
2019-04-10T03:38:24.193Z,38.37
2019-04-10T03:40:53.495Z,36.87
2019-04-10T03:43:24.193Z,35.97
2019-04-10T03:45:53.365Z,35.93
2019-04-10T03:48:23.037Z,36.13
2019-04-10T03:50:52.321Z,36.23
2019-04-10T03:53:22.122Z,35.47
2019-04-10T03:55:53.534Z,35.93
2019-04-10T03:58:23.145Z,35.63
2019-04-10T04:00:52.650Z,34.27
2019-04-10T04:03:21.849Z,35.60
2019-04-10T04:05:51.129Z,33.33
2019-04-10T04:08:21.454Z,33.53
2019-04-10T04:10:51.230Z,35.07
2019-04-10T04:13:21.677Z,35.57
2019-04-10T04:15:51.041Z,39.60
2019-04-10T04:18:21.283Z,35.53
2019-04-10T04:20:51.021Z,34.43
2019-04-10T04:23:21.274Z,32.47
2019-04-10T04:25:50.729Z,33.70
2019-04-10T04:28:20.109Z,33.13
2019-04-10T04:30:51.966Z,33.20
2019-04-10T04:33:21.147Z,32.73
2019-04-10T04:35:51.053Z,32.43
2019-04-10T04:38:20.721Z,32.00
2019-04-10T04:40:51.271Z,31.77
2019-04-10T04:43:21.704Z,30.47
2019-04-10T04:45:51.604Z,32.00
2019-04-10T04:48:21.950Z,31.97
2019-04-10T04:50:52.225Z,29.60
2019-04-10T04:53:21.543Z,29.50
2019-04-10T04:55:51.404Z,29.77
2019-04-10T04:58:20.850Z,29.07
2019-04-10T05:00:50.814Z,31.90
2019-04-10T05:03:20.780Z,27.90
2019-04-10T05:05:50.183Z,28.53
2019-04-10T05:08:19.684Z,28.30
2019-04-10T05:10:49.649Z,28.17
2019-04-10T05:13:19.297Z,29.40
2019-04-10T05:15:49.232Z,28.47
2019-04-10T05:18:19.055Z,29.20
2019-04-10T05:20:50.485Z,29.33
2019-04-10T05:23:19.222Z,27.60
2019-04-10T05:25:48.397Z,27.97
2019-04-10T05:28:17.597Z,26.60
2019-04-10T05:30:46.780Z,29.57
2019-04-10T05:33:16.271Z,28.20
2019-04-10T05:35:45.529Z,27.37
2019-04-10T05:38:14.730Z,27.27
2019-04-10T05:40:44.244Z,25.90
2019-04-10T05:43:13.580Z,28.43
2019-04-10T05:45:42.756Z,28.77
2019-04-10T05:48:12.218Z,27.93
2019-04-10T05:50:53.064Z,27.10
2019-04-10T05:53:12.336Z,26.37
2019-04-10T05:55:41.552Z,26.07
2019-04-10T05:58:10.822Z,25.93
2019-04-10T06:00:41.000Z,26.30
2019-04-10T06:03:10.305Z,24.90
2019-04-10T06:05:40.457Z,27.20
2019-04-10T06:08:09.875Z,26.93
2019-04-10T06:10:39.540Z,27.37
2019-04-10T06:13:08.929Z,26.67
2019-04-10T06:15:39.163Z,25.57
2019-04-10T06:18:09.172Z,26.00
2019-04-10T06:20:39.612Z,25.90
2019-04-10T06:23:09.468Z,25.50
2019-04-10T06:25:41.503Z,26.20
2019-04-10T06:28:09.685Z,24.50
2019-04-10T06:30:39.774Z,24.97
2019-04-10T06:33:09.706Z,25.77
2019-04-10T06:35:39.843Z,24.33
2019-04-10T06:38:10.676Z,24.13
2019-04-10T06:40:40.009Z,24.93
2019-04-10T06:43:09.205Z,24.73
2019-04-10T06:45:39.923Z,26.50
2019-04-10T06:48:09.229Z,24.47
2019-04-10T06:50:39.196Z,25.10
2019-04-10T06:53:08.560Z,23.97
2019-04-10T06:55:38.553Z,24.43
2019-04-10T06:58:07.814Z,23.10
2019-04-10T07:00:37.052Z,23.43
2019-04-10T07:03:06.601Z,23.50
2019-04-10T07:05:40.822Z,23.47
2019-04-10T07:08:15.457Z,22.40
2019-04-10T07:10:48.282Z,24.53
2019-04-10T07:13:11.608Z,21.80
2019-04-10T07:15:43.649Z,23.40
2019-04-10T07:18:16.758Z,22.77
2019-04-10T07:20:44.196Z,22.90
2019-04-10T07:23:15.714Z,23.60
2019-04-10T07:25:46.571Z,22.43
2019-04-10T07:28:15.297Z,23.00
2019-04-10T07:30:45.581Z,21.90
2019-04-10T07:33:16.992Z,23.20
2019-04-10T07:35:46.475Z,23.57
2019-04-10T07:38:15.986Z,23.73
2019-04-10T07:40:45.243Z,22.63
2019-04-10T07:43:15.273Z,23.37
2019-04-10T07:45:44.586Z,22.63
2019-04-10T07:48:14.098Z,23.63
2019-04-10T07:50:45.547Z,21.27
2019-04-10T07:53:14.884Z,23.17
2019-04-10T07:55:57.515Z,22.00
2019-04-10T07:58:15.291Z,23.90
2019-04-10T08:00:45.576Z,22.90
2019-04-10T08:03:16.733Z,21.67
2019-04-10T08:05:46.057Z,21.80
2019-04-10T08:08:15.369Z,22.60
2019-04-10T08:10:45.124Z,23.13
2019-04-10T08:13:14.424Z,24.20
2019-04-10T08:15:43.604Z,24.53
2019-04-10T08:18:12.805Z,21.67
2019-04-10T08:20:42.493Z,22.77
2019-04-10T08:23:12.302Z,23.73
2019-04-10T08:25:41.544Z,22.50
2019-04-10T08:28:11.444Z,24.00
2019-04-10T08:30:41.873Z,23.90
2019-04-10T08:33:12.328Z,22.93
2019-04-10T08:35:41.947Z,23.97
2019-04-10T08:38:13.120Z,22.17
2019-04-10T08:40:42.437Z,23.77
2019-04-10T08:43:11.801Z,23.33
2019-04-10T08:45:47.656Z,21.70
2019-04-10T08:48:11.993Z,21.40
2019-04-10T08:50:41.922Z,22.87
2019-04-10T08:53:11.646Z,23.07
2019-04-10T08:55:42.022Z,23.63
2019-04-10T08:58:11.469Z,23.00
2019-04-10T09:00:40.795Z,21.40
2019-04-10T09:03:10.788Z,21.20
2019-04-10T09:05:40.369Z,22.20
2019-04-10T09:08:10.695Z,21.00
2019-04-10T09:10:40.654Z,21.02
2019-04-10T09:13:10.426Z,21.43
2019-04-10T09:15:40.242Z,21.93
2019-04-10T09:18:11.217Z,20.83
2019-04-10T09:20:40.709Z,21.10
2019-04-10T09:23:21.476Z,22.27
2019-04-10T09:25:41.589Z,20.07
2019-04-10T09:28:10.911Z,19.87
2019-04-10T09:30:40.762Z,20.57
2019-04-10T09:33:20.999Z,20.47
2019-04-10T09:35:41.137Z,21.60
2019-04-10T09:38:10.587Z,21.30
2019-04-10T09:40:40.504Z,20.20
2019-04-10T09:43:09.783Z,19.90
2019-04-10T09:45:39.305Z,20.77
2019-04-10T09:48:08.658Z,21.57
2019-04-10T09:50:37.833Z,22.37
2019-04-10T09:53:07.045Z,21.33
2019-04-10T09:55:36.296Z,20.17
2019-04-10T09:58:06.561Z,23.37
2019-04-10T10:00:36.109Z,22.77
2019-04-10T10:03:05.572Z,21.53
2019-04-10T10:05:34.949Z,20.53
2019-04-10T10:08:04.337Z,21.33
2019-04-10T10:10:35.751Z,21.83
2019-04-10T10:13:05.352Z,21.90
2019-04-10T10:15:35.584Z,20.37
2019-04-10T10:18:05.483Z,21.50
2019-04-10T10:20:35.613Z,19.00
2019-04-10T10:23:05.422Z,21.57
2019-04-10T10:25:35.354Z,21.00
2019-04-10T10:28:05.005Z,19.50
2019-04-10T10:30:34.193Z,19.23
2019-04-10T10:33:03.704Z,19.20
2019-04-10T10:35:33.466Z,19.17
2019-04-10T10:38:03.853Z,21.60
2019-04-10T10:40:33.949Z,20.23
2019-04-10T10:43:04.439Z,20.00
2019-04-10T10:45:34.639Z,18.70
2019-04-10T10:48:08.360Z,17.80
2019-04-10T10:50:35.973Z,21.13
2019-04-10T10:53:06.124Z,19.43
2019-04-10T10:55:36.497Z,19.63
2019-04-10T10:58:05.860Z,20.70
2019-04-10T11:00:35.587Z,20.20
2019-04-10T11:03:05.699Z,20.07
2019-04-10T11:05:35.748Z,20.13
2019-04-10T11:08:05.400Z,20.10
2019-04-10T11:10:34.720Z,19.70
2019-04-10T11:13:04.365Z,19.70
2019-04-10T11:15:34.180Z,20.53
2019-04-10T11:18:04.293Z,18.43
2019-04-10T11:20:34.007Z,18.30
2019-04-10T11:23:03.984Z,20.30
2019-04-10T11:25:33.729Z,20.03
2019-04-10T11:28:04.021Z,17.80
2019-04-10T11:30:34.583Z,18.40
2019-04-10T11:33:04.069Z,15.93
2019-04-10T11:35:33.397Z,17.07
2019-04-10T11:38:03.453Z,18.23
2019-04-10T11:40:34.334Z,17.03
2019-04-10T11:43:05.349Z,17.00
2019-04-10T11:45:41.327Z,15.73
2019-04-10T11:48:06.046Z,16.40
2019-04-10T11:50:38.001Z,17.77
2019-04-10T11:53:07.089Z,16.37
2019-04-10T11:55:45.048Z,17.00
2019-04-10T11:58:10.661Z,15.80
2019-04-10T12:00:50.391Z,17.90
2019-04-10T12:03:12.956Z,16.57
2019-04-10T12:05:42.870Z,17.00
2019-04-10T12:13:16.448Z,18.43
2019-04-10T12:15:45.062Z,15.27
2019-04-10T12:18:14.365Z,16.93
2019-04-10T12:20:43.613Z,14.80
2019-04-10T12:23:13.069Z,16.43
2019-04-10T12:25:42.973Z,14.60
2019-04-10T12:28:12.289Z,14.00
2019-04-10T12:30:41.690Z,14.80
2019-04-10T12:33:11.693Z,14.27
2019-04-10T12:35:40.995Z,15.27
2019-04-10T12:38:11.719Z,15.37
2019-04-10T12:40:41.069Z,14.60
2019-04-10T12:43:10.498Z,15.33
2019-04-10T12:45:40.273Z,14.77
2019-04-10T12:48:10.447Z,15.83
2019-04-10T12:50:39.798Z,14.63
2019-04-10T12:53:09.406Z,14.77
2019-04-10T12:55:38.886Z,14.97
2019-04-10T12:58:15.299Z,15.50
2019-04-10T13:00:41.020Z,13.37
2019-04-10T13:03:11.168Z,14.70
2019-04-10T13:05:41.151Z,14.67
2019-04-10T13:08:20.413Z,15.67
2019-04-10T13:10:43.788Z,15.00
2019-04-10T13:13:13.648Z,14.30
2019-04-10T13:15:43.571Z,15.13
2019-04-10T13:18:12.796Z,14.83
2019-04-10T13:20:42.052Z,14.73
2019-04-10T13:23:13.575Z,13.90
2019-04-10T13:25:42.824Z,13.53
2019-04-10T13:28:13.025Z,15.10
2019-04-10T13:30:48.936Z,14.50
2019-04-10T13:33:14.186Z,13.80
2019-04-10T13:35:43.456Z,14.70
2019-04-10T13:38:23.146Z,16.00
2019-04-10T13:40:43.817Z,14.30
2019-04-10T13:43:13.764Z,14.10
2019-04-10T13:45:43.815Z,15.77
2019-04-10T13:48:13.182Z,14.93
2019-04-10T13:50:43.690Z,14.93
2019-04-10T13:53:13.409Z,14.60
2019-04-10T13:55:42.837Z,14.77
2019-04-10T13:58:12.337Z,17.77
2019-04-10T14:00:43.034Z,14.57
2019-04-10T14:03:12.440Z,15.10
2019-04-10T14:05:41.618Z,15.27
2019-04-10T14:08:10.816Z,14.43
2019-04-10T14:10:41.781Z,15.03
2019-04-10T14:13:11.664Z,14.50
2019-04-10T14:15:40.899Z,13.60
2019-04-10T14:18:12.257Z,13.53
2019-04-10T14:20:41.641Z,14.27
2019-04-10T14:23:12.654Z,14.20
2019-04-10T14:25:44.158Z,13.60
2019-04-10T14:28:13.416Z,13.33
2019-04-10T14:30:45.364Z,14.70
2019-04-10T14:33:15.945Z,15.30
2019-04-10T14:35:45.390Z,15.73
2019-04-10T14:38:14.933Z,13.07
2019-04-10T14:40:45.243Z,13.70
2019-04-10T14:43:14.888Z,14.80
2019-04-10T14:45:44.084Z,14.70
2019-04-10T14:48:14.066Z,14.20
2019-04-10T14:50:44.202Z,14.03
2019-04-10T14:53:13.877Z,15.90
2019-04-10T14:55:43.918Z,15.60
2019-04-10T14:58:21.964Z,15.23
2019-04-10T15:00:46.721Z,14.50
2019-04-10T15:03:16.845Z,14.43
2019-04-10T15:05:50.893Z,14.30
2019-04-10T15:08:17.596Z,14.57
2019-04-10T15:10:47.177Z,14.77
2019-04-10T15:13:20.981Z,14.27
2019-04-10T15:15:48.285Z,15.07
2019-04-10T15:18:18.443Z,14.40
2019-04-10T15:20:47.707Z,13.70
2019-04-10T15:23:16.904Z,13.40
2019-04-10T15:25:47.113Z,12.63
2019-04-10T15:28:16.460Z,12.60
2019-04-10T15:30:46.605Z,13.50
2019-04-10T15:33:15.856Z,13.20
2019-04-10T15:35:45.057Z,11.83
2019-04-10T15:38:14.230Z,12.60
2019-04-10T15:40:44.063Z,13.77
2019-04-10T15:43:13.643Z,13.80
2019-04-10T15:45:44.098Z,13.88
2019-04-10T15:48:13.492Z,14.13
2019-04-10T15:50:43.423Z,14.00
2019-04-10T15:53:12.845Z,15.33
2019-04-10T15:55:42.133Z,16.37
2019-04-10T15:58:11.381Z,15.43
2019-04-10T16:00:41.376Z,15.00
2019-04-10T16:03:11.314Z,15.30
2019-04-10T16:05:41.744Z,15.90
2019-04-10T16:08:14.239Z,16.47
2019-04-10T16:10:52.951Z,15.87
2019-04-10T16:13:41.901Z,16.40
2019-04-10T16:16:19.101Z,19.30
2019-04-10T16:18:51.161Z,15.53
2019-04-10T16:21:20.406Z,17.27
2019-04-10T16:23:58.230Z,17.90
2019-04-10T16:26:29.281Z,16.60
2019-04-10T16:28:59.817Z,16.00
2019-04-10T16:31:29.812Z,15.83
2019-04-10T16:34:00.877Z,16.33
2019-04-10T16:36:30.505Z,14.50
2019-04-10T16:39:00.790Z,16.07
2019-04-10T16:41:31.690Z,14.07
2019-04-10T16:44:01.178Z,15.40
2019-04-10T16:46:30.354Z,15.77
2019-04-10T16:49:00.237Z,14.13
2019-04-10T16:51:29.559Z,15.43
2019-04-10T16:53:58.751Z,14.50
2019-04-10T16:56:27.938Z,12.93
2019-04-10T16:58:58.365Z,13.53
2019-04-10T17:01:28.844Z,14.03
2019-04-10T17:03:58.686Z,13.87
2019-04-10T17:06:28.291Z,13.27
2019-04-10T17:08:58.490Z,12.90
2019-04-10T17:11:27.754Z,13.30
2019-04-10T17:13:57.221Z,13.47
2019-04-10T17:16:26.493Z,13.20
2019-04-10T17:18:55.669Z,13.40
2019-04-10T17:21:26.632Z,13.67
2019-04-10T17:23:56.668Z,14.20
2019-04-10T17:26:26.712Z,13.27
2019-04-10T17:28:56.673Z,14.27
2019-04-10T17:31:26.643Z,13.93
2019-04-10T17:33:56.625Z,13.33
2019-04-10T17:36:27.115Z,13.43
2019-04-10T17:38:56.572Z,13.60
2019-04-10T17:41:26.078Z,13.67
2019-04-10T17:43:58.250Z,14.30
2019-04-10T17:46:27.545Z,14.13
2019-04-10T17:48:57.050Z,14.40
2019-04-10T17:51:26.229Z,13.83
2019-04-10T17:53:55.917Z,13.50
2019-04-10T17:56:26.119Z,12.70
2019-04-10T17:58:56.046Z,13.47
2019-04-10T18:01:27.060Z,13.90
2019-04-10T18:03:58.970Z,14.40
2019-04-10T18:06:27.703Z,14.47
2019-04-10T18:08:57.134Z,13.73
2019-04-10T18:11:26.337Z,13.70
2019-04-10T18:13:55.533Z,14.40
2019-04-10T18:16:25.602Z,14.50
2019-04-10T18:18:55.945Z,15.23
2019-04-10T18:21:25.245Z,13.80
2019-04-10T18:23:54.432Z,13.47
2019-04-10T18:26:23.714Z,14.00
2019-04-10T18:28:53.975Z,13.05
2019-04-10T18:31:25.140Z,13.60
2019-04-10T18:33:55.176Z,13.50
2019-04-10T18:36:24.538Z,12.93
2019-04-10T18:38:54.225Z,13.83
2019-04-10T18:41:24.224Z,13.23
2019-04-10T18:43:53.548Z,12.40
2019-04-10T18:46:23.893Z,12.97
2019-04-10T18:48:53.325Z,13.03
2019-04-10T18:51:23.523Z,14.37
2019-04-10T18:53:53.358Z,13.87
2019-04-10T18:56:22.979Z,12.93
2019-04-10T18:59:05.681Z,14.40
2019-04-10T19:01:53.625Z,14.30
2019-04-10T19:04:27.466Z,14.30
2019-04-10T19:07:01.458Z,13.43
2019-04-10T19:09:32.515Z,12.57
2019-04-10T19:12:02.512Z,15.37
2019-04-10T19:14:35.865Z,13.57
2019-04-10T19:17:02.841Z,13.77
2019-04-10T19:19:32.467Z,14.23
2019-04-10T19:22:04.203Z,14.97
2019-04-10T19:24:34.058Z,14.70
2019-04-10T19:27:04.298Z,13.63
2019-04-10T19:29:33.826Z,13.63
2019-04-10T19:32:04.875Z,14.43
2019-04-10T19:34:34.406Z,14.90
2019-04-10T19:37:04.648Z,14.30
2019-04-10T19:39:34.204Z,14.77
2019-04-10T19:42:04.864Z,14.33
2019-04-10T19:44:35.323Z,14.60
2019-04-10T19:47:04.655Z,14.03
2019-04-10T19:49:34.921Z,13.43
2019-04-10T19:52:04.649Z,13.43
2019-04-10T19:54:33.902Z,14.10
2019-04-10T19:57:03.086Z,14.00
2019-04-10T19:59:33.453Z,15.27
2019-04-10T20:02:02.744Z,14.47
2019-04-10T20:04:32.477Z,13.20
2019-04-10T20:07:02.780Z,13.70
2019-04-10T20:09:32.660Z,14.67
2019-04-10T20:12:02.449Z,13.17
2019-04-10T20:14:32.711Z,13.40
2019-04-10T20:17:03.867Z,12.50
2019-04-10T20:19:33.195Z,12.53
2019-04-10T20:22:02.393Z,12.13
2019-04-10T20:24:32.618Z,12.67
2019-04-10T20:27:01.933Z,12.77
2019-04-10T20:29:31.105Z,11.93
2019-04-10T20:32:00.297Z,12.40
2019-04-10T20:34:29.605Z,13.30
2019-04-10T20:37:05.864Z,12.40
2019-04-10T20:39:31.525Z,12.27
2019-04-10T20:42:01.005Z,12.77
2019-04-10T20:44:30.742Z,12.40
2019-04-10T20:47:00.411Z,11.90
2019-04-10T20:49:30.154Z,13.30
2019-04-10T20:51:59.459Z,12.40
2019-04-10T20:54:30.847Z,12.57
2019-04-10T20:57:01.163Z,14.43
2019-04-10T20:59:30.593Z,13.50
2019-04-10T21:02:01.958Z,11.97
2019-04-10T21:04:32.402Z,13.30
2019-04-10T21:07:02.792Z,12.73
2019-04-10T21:09:32.194Z,13.13
2019-04-10T21:12:08.191Z,12.50
2019-04-10T21:14:33.691Z,13.50
2019-04-10T21:17:03.081Z,12.93
2019-04-10T21:19:33.344Z,13.33
2019-04-10T21:22:03.738Z,12.90
2019-04-10T21:24:33.594Z,13.03
2019-04-10T21:27:03.577Z,13.67
2019-04-10T21:29:44.212Z,13.67
2019-04-10T21:32:32.381Z,13.07
2019-04-10T21:35:03.974Z,12.70
2019-04-10T21:37:33.220Z,13.13
2019-04-10T21:40:02.782Z,13.50
2019-04-10T21:42:33.609Z,12.70
2019-04-10T21:45:02.925Z,13.97
2019-04-10T21:47:32.122Z,13.47
2019-04-10T21:50:02.615Z,13.27
2019-04-10T21:52:33.154Z,13.57
2019-04-10T21:55:02.766Z,14.50
2019-04-10T21:57:32.059Z,15.60
2019-04-10T22:00:01.624Z,14.00
2019-04-10T22:02:32.150Z,14.50
2019-04-10T22:05:01.338Z,12.90
2019-04-10T22:07:35.040Z,14.97
2019-04-10T22:10:13.420Z,14.53
2019-04-10T22:12:47.103Z,13.80
2019-04-10T22:15:21.082Z,14.23
2019-04-10T22:17:50.444Z,14.43
2019-04-10T22:20:19.789Z,14.23
2019-04-10T22:22:48.977Z,14.90
2019-04-10T22:25:19.416Z,14.97
2019-04-10T22:27:49.949Z,14.20
2019-04-10T22:30:19.500Z,15.40
2019-04-10T22:32:49.305Z,14.90
2019-04-10T22:35:19.417Z,14.37
2019-04-10T22:37:48.729Z,15.23
2019-04-10T22:40:17.922Z,15.70
2019-04-10T22:42:48.602Z,14.97
2019-04-10T22:45:25.745Z,15.50
2019-04-10T22:47:54.573Z,14.50
2019-04-10T22:50:24.448Z,14.80
2019-04-10T22:52:54.879Z,16.20
2019-04-10T22:55:24.509Z,16.17
2019-04-10T22:57:54.727Z,15.43
2019-04-10T23:00:32.693Z,14.53
2019-04-10T23:03:03.181Z,15.43
2019-04-10T23:05:32.653Z,15.73
2019-04-10T23:08:03.186Z,15.30
2019-04-10T23:10:33.234Z,15.27
2019-04-10T23:13:05.345Z,14.90
2019-04-10T23:15:33.612Z,14.90
2019-04-10T23:18:03.375Z,14.50
2019-04-10T23:20:32.667Z,14.30
2019-04-10T23:23:03.125Z,14.33
2019-04-10T23:25:32.357Z,14.77
2019-04-10T23:28:01.542Z,14.53
2019-04-10T23:30:30.878Z,14.10
2019-04-10T23:33:01.784Z,13.97
2019-04-10T23:35:31.645Z,13.90
2019-04-10T23:38:01.495Z,14.30
2019-04-10T23:40:31.097Z,14.00
2019-04-10T23:43:07.555Z,14.93
2019-04-10T23:45:31.568Z,15.90
2019-04-10T23:48:00.859Z,14.67
2019-04-10T23:50:30.294Z,15.33
2019-04-10T23:53:00.360Z,15.07
2019-04-10T23:55:30.190Z,15.77
2019-04-10T23:58:00.007Z,15.17
